createdAt,value
2022-11-22T00:03:09.818Z,11.82
2022-11-22T00:08:11.391Z,12.10
2022-11-22T00:13:12.876Z,12.23
2022-11-22T00:18:14.326Z,13.13
2022-11-22T00:23:16.582Z,11.50
2022-11-22T00:28:18.113Z,12.55
2022-11-22T00:33:19.617Z,12.70
2022-11-22T00:38:21.096Z,14.43
2022-11-22T00:43:23.714Z,11.73
2022-11-22T00:48:25.237Z,11.48
2022-11-22T00:53:26.803Z,11.18
2022-11-22T00:58:28.309Z,11.77
2022-11-22T01:03:29.934Z,12.20
2022-11-22T01:08:31.419Z,12.40
2022-11-22T01:13:33.021Z,11.77
2022-11-22T01:18:34.867Z,10.73
2022-11-22T01:23:36.924Z,12.15
2022-11-22T01:28:38.430Z,10.40
2022-11-22T01:33:39.898Z,12.13
2022-11-22T01:38:41.343Z,12.18
2022-11-22T01:43:42.868Z,12.63
2022-11-22T01:49:03.235Z,11.77
2022-11-22T01:54:11.684Z,12.50
2022-11-22T01:59:17.047Z,14.20
2022-11-22T02:04:20.507Z,15.20
2022-11-22T02:09:23.413Z,14.93
2022-11-22T02:14:27.419Z,13.98
2022-11-22T02:19:51.191Z,14.70
2022-11-22T02:25:16.068Z,15.25
2022-11-22T02:30:18.398Z,13.73
2022-11-22T02:35:23.131Z,13.77
2022-11-22T02:40:26.719Z,14.00
2022-11-22T02:45:28.321Z,13.80
2022-11-22T02:50:29.823Z,13.45
2022-11-22T02:55:31.362Z,12.75
2022-11-22T03:00:34.665Z,10.95
2022-11-22T03:05:36.118Z,10.52
2022-11-22T03:10:37.735Z,9.75
2022-11-22T03:15:39.264Z,9.77
2022-11-22T03:20:40.750Z,9.55
2022-11-22T03:25:42.513Z,8.70
2022-11-22T03:30:44.014Z,8.60
2022-11-22T03:35:45.622Z,9.00
2022-11-22T03:40:47.096Z,8.18
2022-11-22T03:45:48.579Z,7.47
2022-11-22T03:50:50.156Z,7.57
2022-11-22T03:55:51.632Z,7.43
2022-11-22T04:00:53.178Z,7.10
2022-11-22T04:05:55.062Z,6.32
2022-11-22T04:10:56.504Z,6.55
2022-11-22T04:15:57.945Z,5.18
2022-11-22T04:21:18.094Z,5.10
2022-11-22T04:26:19.569Z,5.28
2022-11-22T04:31:39.500Z,4.60
2022-11-22T04:36:40.984Z,4.53
2022-11-22T04:41:42.852Z,4.55
2022-11-22T04:46:44.332Z,4.75
2022-11-22T04:52:04.342Z,4.18
2022-11-22T04:57:05.792Z,4.45
2022-11-22T05:02:07.337Z,4.07
2022-11-22T05:07:08.802Z,4.30
2022-11-22T05:12:10.264Z,4.93
2022-11-22T05:17:13.667Z,3.85
2022-11-22T05:22:15.361Z,3.65
2022-11-22T05:27:16.892Z,3.63
2022-11-22T05:32:18.385Z,4.00
2022-11-22T05:37:19.842Z,3.45
2022-11-22T05:42:21.505Z,3.83
2022-11-22T05:47:23.020Z,4.70
2022-11-22T05:52:24.520Z,4.07
2022-11-22T05:57:26.998Z,3.58
2022-11-22T06:02:31.218Z,3.65
2022-11-22T06:07:32.841Z,3.70
2022-11-22T06:12:34.381Z,3.88
2022-11-22T06:17:35.888Z,3.60
2022-11-22T06:22:37.438Z,3.70
2022-11-22T06:27:38.927Z,4.18
2022-11-22T06:32:40.430Z,3.80
2022-11-22T06:37:41.938Z,4.38
2022-11-22T06:42:43.453Z,5.20
2022-11-22T06:47:44.944Z,6.72
2022-11-22T06:52:52.044Z,7.68
2022-11-22T06:57:53.509Z,8.43
2022-11-22T07:02:54.981Z,8.88
2022-11-22T07:08:02.841Z,8.50
2022-11-22T07:13:07.210Z,7.93
2022-11-22T07:18:08.679Z,9.20
2022-11-22T07:23:12.500Z,9.38
2022-11-22T07:28:15.447Z,9.68
2022-11-22T07:33:17.018Z,10.05
2022-11-22T07:38:18.593Z,9.27
2022-11-22T07:43:20.090Z,9.30
2022-11-22T07:48:21.549Z,9.48
2022-11-22T07:53:23.250Z,8.63
2022-11-22T07:58:24.737Z,10.13
2022-11-22T08:03:29.183Z,8.43
2022-11-22T08:08:31.321Z,9.20
2022-11-22T08:13:33.841Z,8.25
2022-11-22T08:18:36.535Z,8.20
2022-11-22T08:23:39.598Z,6.43
2022-11-22T08:28:42.740Z,6.68
2022-11-22T08:33:44.320Z,5.95
2022-11-22T08:38:45.990Z,6.25
2022-11-22T08:43:50.653Z,6.50
2022-11-22T08:48:54.095Z,5.18
2022-11-22T08:53:55.536Z,4.82
2022-11-22T08:58:57.049Z,5.07
2022-11-22T09:03:59.032Z,4.90
2022-11-22T09:09:29.924Z,4.85
2022-11-22T09:14:22.002Z,5.53
2022-11-22T09:19:23.538Z,5.82
2022-11-22T09:24:24.991Z,5.57
2022-11-22T09:29:28.155Z,5.25
2022-11-22T09:34:30.031Z,4.43
2022-11-22T09:39:31.723Z,4.60
2022-11-22T09:45:01.888Z,3.90
2022-11-22T09:50:33.844Z,4.75
2022-11-22T09:55:45.378Z,2.97
2022-11-22T10:00:51.991Z,3.83
2022-11-22T10:05:57.940Z,3.27
2022-11-22T10:11:01.371Z,3.45
2022-11-22T10:16:14.845Z,2.97
2022-11-22T10:21:16.574Z,3.08
2022-11-22T10:26:23.979Z,3.10
2022-11-22T10:31:43.237Z,2.80
2022-11-22T10:36:57.049Z,3.13
2022-11-22T10:42:01.430Z,3.00
2022-11-22T10:47:09.025Z,3.40
2022-11-22T10:52:33.386Z,2.95
2022-11-22T10:57:34.872Z,3.20
2022-11-22T11:02:54.834Z,3.30
2022-11-22T11:08:04.197Z,2.80
2022-11-22T11:13:23.574Z,2.80
2022-11-22T11:18:30.865Z,2.97
2022-11-22T11:23:32.573Z,2.85
2022-11-22T11:28:34.125Z,3.00
2022-11-22T11:33:38.413Z,2.80
2022-11-22T11:38:42.907Z,3.20
2022-11-22T11:43:44.559Z,3.53
2022-11-22T11:48:46.644Z,2.75
2022-11-22T11:54:15.722Z,2.65
2022-11-22T11:59:22.299Z,2.75
2022-11-22T12:04:27.365Z,3.13
2022-11-22T12:09:32.227Z,3.08
2022-11-22T12:15:03.290Z,2.63
2022-11-22T12:20:08.380Z,2.55
2022-11-22T12:25:32.977Z,2.75
2022-11-22T12:30:36.271Z,2.58
2022-11-22T12:35:43.763Z,2.80
2022-11-22T12:40:50.023Z,3.50
2022-11-22T12:46:00.182Z,4.10
2022-11-22T12:51:17.018Z,3.33
2022-11-22T12:56:33.541Z,3.15
2022-11-22T13:01:41.545Z,3.67
2022-11-22T13:06:58.912Z,3.72
2022-11-22T13:12:08.673Z,4.00
2022-11-22T13:17:12.242Z,3.75
2022-11-22T13:22:41.304Z,3.97
2022-11-22T13:27:50.833Z,3.95
2022-11-22T13:32:55.440Z,3.85
2022-11-22T13:38:00.747Z,2.78
2022-11-22T13:43:49.180Z,3.17
2022-11-22T13:48:53.613Z,2.13
2022-11-22T13:54:34.060Z,2.75
2022-11-22T13:59:35.842Z,1.77
2022-11-22T14:04:42.602Z,2.55
2022-11-22T14:09:54.079Z,2.30
2022-11-22T14:15:27.104Z,3.78
2022-11-22T14:20:39.520Z,5.25
2022-11-22T14:25:44.097Z,3.83
2022-11-22T14:30:49.993Z,6.50
2022-11-22T14:36:06.633Z,3.83
2022-11-22T14:41:26.659Z,4.05
2022-11-22T14:46:52.703Z,3.10
2022-11-22T14:51:56.257Z,2.20
2022-11-22T14:57:04.706Z,3.22
2022-11-22T15:02:25.363Z,3.10
2022-11-22T15:09:16.117Z,3.65
2022-11-22T15:13:34.472Z,3.63
2022-11-22T16:02:19.331Z,2.50
2022-11-22T16:07:37.722Z,2.42
2022-11-22T16:12:42.293Z,2.60
2022-11-22T16:17:55.016Z,2.88
2022-11-22T16:23:09.781Z,2.03
2022-11-22T16:28:32.759Z,2.75
2022-11-22T16:33:35.133Z,2.60
2022-11-22T16:38:36.791Z,2.80
2022-11-22T16:43:38.474Z,2.35
2022-11-22T16:48:40.600Z,3.78
2022-11-22T16:53:44.724Z,2.00
2022-11-22T16:58:48.469Z,2.90
2022-11-22T17:03:53.015Z,2.70
2022-11-22T17:08:56.640Z,3.28
2022-11-22T17:14:00.067Z,3.42
2022-11-22T17:19:01.641Z,2.60
2022-11-22T17:24:24.809Z,3.42
2022-11-22T17:29:49.169Z,3.70
2022-11-22T17:34:48.098Z,4.78
2022-11-22T17:39:52.736Z,5.18
2022-11-22T17:44:54.505Z,4.47
2022-11-22T17:49:56.628Z,7.45
2022-11-22T17:55:03.546Z,7.43
2022-11-22T18:00:08.276Z,8.25
2022-11-22T18:05:09.986Z,8.23
2022-11-22T18:10:11.977Z,5.32
2022-11-22T18:15:13.937Z,5.60
2022-11-22T18:20:15.448Z,6.25
2022-11-22T18:25:16.978Z,6.63
2022-11-22T18:30:18.570Z,6.63
2022-11-22T18:35:20.036Z,7.05
2022-11-22T18:40:21.563Z,6.35
2022-11-22T18:45:25.461Z,7.40
2022-11-22T18:50:26.970Z,8.02
2022-11-22T18:55:28.490Z,7.82
2022-11-22T19:00:30.030Z,8.00
2022-11-22T19:05:31.592Z,9.00
2022-11-22T19:10:33.059Z,10.80
2022-11-22T19:15:34.725Z,12.02
2022-11-22T19:20:54.554Z,11.98
2022-11-22T19:25:57.075Z,12.82
2022-11-22T19:31:09.148Z,11.25
2022-11-22T19:36:16.027Z,11.43
2022-11-22T19:41:22.744Z,11.27
2022-11-22T19:46:24.980Z,12.57
2022-11-22T19:51:28.482Z,11.32
2022-11-22T19:56:36.345Z,11.73
2022-11-22T20:01:39.616Z,12.45
2022-11-22T20:06:43.162Z,11.00
2022-11-22T20:11:47.504Z,11.10
2022-11-22T20:16:48.948Z,11.35
2022-11-22T20:21:50.544Z,11.80
2022-11-22T20:26:52.074Z,9.50
2022-11-22T20:31:53.641Z,8.93
2022-11-22T20:36:55.505Z,9.15
2022-11-22T20:42:18.506Z,9.40
2022-11-22T20:47:19.011Z,7.97
2022-11-22T20:52:20.507Z,8.50
2022-11-22T20:57:22.039Z,7.70
2022-11-22T21:02:23.547Z,8.77
2022-11-22T21:07:25.793Z,7.57
2022-11-22T21:12:27.532Z,8.10
2022-11-22T21:17:45.559Z,8.07
2022-11-22T21:22:54.219Z,8.02
2022-11-22T21:27:55.718Z,7.47
2022-11-22T21:32:57.254Z,7.65
2022-11-22T21:37:58.716Z,8.50
2022-11-22T21:43:00.166Z,8.82
2022-11-22T21:48:03.361Z,8.68
2022-11-22T21:53:05.302Z,9.63
2022-11-22T21:58:06.866Z,8.50
2022-11-22T22:03:10.153Z,9.13
2022-11-22T22:08:11.612Z,8.60
2022-11-22T22:13:13.057Z,9.63
2022-11-22T22:18:14.976Z,8.43
2022-11-22T22:23:16.520Z,9.38
2022-11-22T22:28:17.956Z,8.80
2022-11-22T22:33:19.485Z,10.23
2022-11-22T22:38:20.943Z,9.57
2022-11-22T22:43:23.473Z,9.63
2022-11-22T22:48:24.931Z,10.18
2022-11-22T22:53:26.417Z,11.55
2022-11-22T22:58:27.996Z,10.60
2022-11-22T23:03:29.546Z,10.95
2022-11-22T23:08:31.045Z,11.40
2022-11-22T23:13:34.529Z,11.32
2022-11-22T23:18:38.489Z,11.18
2022-11-22T23:23:39.985Z,11.25
2022-11-22T23:28:41.468Z,13.40
2022-11-22T23:33:44.025Z,12.38
2022-11-22T23:38:46.436Z,12.77
2022-11-22T23:43:52.529Z,14.10
2022-11-22T23:48:59.197Z,13.73
2022-11-22T23:54:03.441Z,14.68
2022-11-22T23:59:05.682Z,14.75
